Hlavní strana
METAR-TAF:

METAR-TAF

Letiště :

Bahrajn, Bahrajn

zeměpisná šířka: 26-16N, zeměpisná délka: 050-39E, výška: 2 m

Aktuální stav počasí

Zpráva byla vytvořena před 39 minutami, v 14:30 UTC
Východoseverovýchodní vítr 8 kt
Teplota 32°C
Vlhkost vzduchu 49%
Tlak 1013 hPa
Viditelnost: 8000 m

METAR: OBBI 151430Z 07008KT 8000 NSC 32/20 Q1013 NOSIG

Čas: 18:09 (15:09 UTC)

Předpověď počasí

Zpráva byla vytvořena před 2 hodinami a 56 minutami, v 12:13 UTC
Předpověď platná od 15 v 12 UTC do 16 v 18 UTC
Severoseverovýchodní vítr 10 kt
Viditelnost: 8000 m
Skoro jasno ve výšce 3000 ft
Pravděpodobnost 30% :
Dočasný
od 15 v 12 UTC do 15 v 16 UTC
Západoseverozápadní vítr 17 kt s nárazy do 27 kt
Viditelnost: 1000 m
rozsáhlý prach
Změna
od 15 v 18 UTC do 15 v 20 UTC
Jižní vítr 8 kt
Změna
od 16 v 09 UTC do 16 v 11 UTC
Východoseverovýchodní vítr 10 kt

TAF: OBBI 151213Z 1512/1618 03010KT 8000 FEW030 PROB30 TEMPO 1512/1516 30017G27KT 1000 DU BECMG 1518/1520 18008KT BECMG 1609/1611 06010KT

Stav a předpovědi počasí z více než 4 000 letišť (zprávy METAR a TAF).

Červené a žluté tečky na mapě představují dostupné meteorologické stanice.

Když kurzor umístíte na tečku, zobrazí se název stanice.

Pak kliknutím zobrazíte stav a předpověď počasí.

Chcete-li změnit mapu, kliknutím na zelené tlačítko se znaménkem +mapu přiblížíte, kliknutím na zelené tlačítko se znaménkem – mapu oddálíte a kliknutím na zelené šipky přejdete na sousední mapy.


METAR-TAF: